Historyczne dane pomiarowe

Dodano dane terminowe – wersja testowa.

Dane z okresu 1951-2018

Wersja bazy: 1.27 [2018-11-28, lista zmian], aktualizacja planowana na 2018-12-07

Dane meteo z obszaru Polski uzyskane na podstawie danych udostępnionych przez Instytut Meteorologii i Gospodarki Wodnej – Państwowy Instytut Badawczy.

 

Wybierz Datę:    

       

TemperaturaWilgotnośćWiatrCiśnienieOpadyŚniegCzas trwania zjawisk
 Stacja t tx tn tng RH VA  wxwx mslp ppp RRR   cm mm wxwxwxwxwxwxwx
2018-11-30 -4.2 0.7 -7.6-12.2 68.0 3.0- 1.9--1028.1 990.3 0.0 0.0 0.0x- 7.6-------
2018-11-29 -4.6 0.6-10.4-14.0 78.8 3.4- 1.5--1035.0 996.8 0.0 0.0 0.0x- 7.7-------
2018-11-28 -1.9 -0.1 -2.3 -3.4 76.9 4.1- 1.8--1030.1 992.5 0.0 0.0 0.0x- 2.1-------
2018-11-27 -1.8 1.6 -2.8 -3.6 87.8 4.7- 2.4--1018.3 981.2 3.7 3.7 0.0x- 0.0-------
2018-11-26 3.5 6.5 1.6 1.2 93.4 7.4- 3.9--1008.9 972.9 3.1 3.0 0.1x- 0.0-------
2018-11-25 6.2 8.5 5.1 4.5 88.6 8.4- 0.8--1013.6 977.7 5.9 0.0 5.9x- 0.0-------
2018-11-24 5.2 9.2 -1.7 -2.8 80.5 7.0- 1.8--1017.8 981.6 0.6 0.6 0.0x- 1.4-------
2018-11-23 1.4 4.9 0.1 -2.1 93.6 6.3- 0.4--1026.5 989.5 0.0 0.0 0.0x- 0.2-------
2018-11-22 0.6 1.7 0.0 -0.6 88.9 5.7- 1.3--1025.5 988.4 0.0 0.0 0.0x- 0.0-------
2018-11-21 0.3 0.7 0.0 -0.3 92.4 5.8- 1.9--1021.4 984.4 0.0 0.0 0.0x- 0.0-------
2018-11-20 1.2 3.0 0.4 0.0 82.3 5.5- 1.9--1020.5 983.7 2.0 0.8 1.2x- 2.9-------
2018-11-19 -0.6 0.7 -2.4 -5.2 83.6 4.9- 1.6--1021.8 984.7 0.0 0.0 0.0x- 0.0-------
2018-11-18 -1.6 0.9 -4.7 -7.0 81.4 4.4- 0.9--1028.8 991.4 0.0 0.0 0.0x- 1.8-------
2018-11-17 -0.1 3.6 -1.9 -3.4 75.6 4.6- 2.0--1037.81000.2 0.0 0.0 0.0x- 4.8-------
2018-11-16 3.9 6.3 3.1 2.4 80.3 6.5- 2.0--1036.6 999.6 0.0 0.0 0.0x- 0.0-------
2018-11-15 6.9 8.3 5.7 3.8 87.1 8.6- 1.0--1031.5 995.0 1.1 1.0 0.1x- 0.1-------
2018-11-14 9.0 12.8 7.4 6.2 74.9 8.6- 3.6--1029.1 993.0 1.5 0.1 1.4x- 0.3-------
2018-11-13 10.6 17.7 3.1 0.3 74.1 9.3- 1.8--1024.9 989.2 0.0 0.0 0.0x- 8.2-------
2018-11-12 9.6 18.2 1.5 -1.4 76.5 8.9- 1.5--1024.8 988.9 0.0 0.0 0.0x- 7.7-------
2018-11-11 8.2 17.2 0.1 -2.6 79.3 8.4- 1.8--1018.7 982.9 0.0 0.0 0.0x- 8.3-------
2018-11-10 6.7 13.1 2.6 -0.2 86.5 8.5- 1.4--1017.6 981.7 0.0 0.0 0.0x- 7.4-------
2018-11-09 7.1 16.3 1.0 -1.3 86.4 8.6- 0.8--1021.3 985.2 0.0 0.0 0.0x- 7.5-------
2018-11-08 8.2 17.9 2.2 -1.1 80.0 8.5- 0.5--1022.0 986.0 0.0 0.0 0.0x- 8.4-------
2018-11-07 10.6 19.8 2.0 -1.3 63.8 7.8- 1.8--1019.2 983.6 0.0 0.0 0.0x- 8.8-------
2018-11-06 13.4 21.6 6.1 3.1 49.9 7.3- 2.0--1022.0 986.6 0.0 0.0 0.0x- 9.1-------
2018-11-05 12.1 20.1 6.2 6.7 78.0 10.8- 1.1--1025.1 989.5 0.0 0.0 0.0x- 7.7-------
2018-11-04 11.7 13.1 10.7 10.5 94.9 13.0- 1.0--1025.4 989.8 0.1 0.0 0.1x- 0.0-------
2018-11-03 12.9 17.1 11.0 9.0 91.3 13.5- 1.4--1026.1 990.6 0.1 0.0 0.1x- 2.3-------
2018-11-02 17.1 21.2 13.6 11.4 70.3 13.4- 1.8--1022.2 987.3 0.1 0.0 0.1x- 7.3-------
2018-11-01 13.6 20.9 2.8 0.2 63.4 9.3- 2.6--1021.9 986.6 0.4 0.0 0.4x- 7.5-------
2018-10-31 11.8 19.4 3.9 1.5 65.4 8.6- 1.5--1022.6 987.0 0.0 0.0 0.0x- 9.3-------
2018-10-30 18.5 21.7 16.8 13.9 54.3 11.6- 3.9--1009.0 974.7 0.0 0.0 0.0x- 5.1-------
2018-10-29 16.4 21.7 7.8 7.6 75.8 13.9- 1.8--1008.4 973.9 1.4 1.4 0.0x- 4.9-------
2018-10-28 7.6 9.0 6.0 5.7 96.3 10.0- 1.5--1011.3 975.6 0.4 0.4 0.0x- 0.0-------
2018-10-27 8.3 14.6 3.2 1.3 88.4 9.6- 0.9--1007.8 972.4 6.1 2.1 4.0x- 1.4-------
2018-10-26 8.5 12.1 6.5 4.0 73.3 8.0- 2.0--1011.2 975.6 0.0 0.0 0.0x- 0.3-------
2018-10-25 7.6 11.2 3.6 1.0 74.3 7.9- 4.5--1010.6 975.0 4.5 1.6 2.9x- 0.1-------
2018-10-24 7.0 9.0 3.0 0.8 64.9 6.5- 4.8--1005.6 970.1 2.0 2.0 0.0x- 3.1-------
2018-10-23 7.7 9.8 5.2 2.9 75.5 7.9- 3.5--1016.2 980.4 9.7 0.7 9.0x- 1.6-------
2018-10-22 8.4 14.5 5.3 2.5 83.9 9.1- 1.1--1026.4 990.3 1.4 0.0 1.4x- 6.6-------
2018-10-21 7.3 10.5 6.1 5.5 89.1 9.1- 1.1--1027.5 991.2 2.0 2.0 0.0x- 0.0-------
2018-10-20 10.1 11.8 9.5 9.3 89.4 11.0- 1.1--1025.4 989.6 2.9 0.0 2.9x- 0.0-------
2018-10-19 11.9 16.5 9.5 7.9 85.4 11.9- 1.1--1022.3 986.8 0.0 0.0 0.0x- 0.0-------
2018-10-18 12.0 20.0 6.2 3.4 75.0 10.3- 0.8--1020.7 985.2 0.0 0.0 0.0x- 6.2-------
2018-10-17 12.0 21.6 5.8 3.2 72.3 9.6- 0.6--1022.8 987.2 0.0 0.0 0.0x- 8.1-------
2018-10-16 10.8 22.0 3.5 0.2 70.4 8.5- 0.8--1023.6 987.9 0.0 0.0 0.0x- 9.8-------
2018-10-15 12.6 24.0 4.0 1.3 63.3 8.3- 1.1--1023.7 988.2 0.0 0.0 0.0x- 10.2-------
2018-10-14 13.2 24.1 3.4 0.4 66.6 9.2- 1.8--1025.7 990.2 0.0 0.0 0.0x- 10.2-------
2018-10-13 12.3 23.4 3.7 0.5 74.9 10.2- 1.0--1029.5 993.8 0.0 0.0 0.0x- 10.3-------
2018-10-12 12.6 24.0 3.8 0.6 74.3 10.2- 1.0--1028.8 993.1 0.0 0.0 0.0x- 10.0-------
2018-10-11 12.7 24.7 4.1 1.4 77.3 10.9- 1.0--1026.3 990.7 0.0 0.0 0.0x- 9.9-------
2018-10-10 12.3 22.4 5.9 3.3 80.3 10.9- 0.8--1027.4 991.7 0.0 0.0 0.0x- 7.4-------
2018-10-09 12.5 19.7 9.2 8.5 83.8 12.1- 1.1--1025.7 990.1 0.0 0.0 0.0x- 6.1-------
2018-10-08 12.1 15.7 10.4 10.3 75.4 10.7- 1.5--1023.8 988.3 0.0 0.0 0.0x- 2.1-------
2018-10-07 16.3 23.2 9.3 6.7 66.6 12.1- 1.6--1014.7 980.0 0.0 0.0 0.0x- 6.0-------
2018-10-06 13.8 23.0 4.0 1.4 59.9 8.7- 2.9--1019.2 984.0 0.0 0.0 0.0x- 10.8-------
2018-10-05 8.7 18.8 0.3 -2.2 74.4 7.9- 0.8--1028.5 992.4 0.0 0.0 0.0x- 10.9-------
2018-10-04 8.4 13.5 5.6 2.2 72.0 7.7- 2.9--1027.5 991.4 0.1 0.1 0.0x- 5.2-------
2018-10-03 9.8 14.6 4.8 2.0 65.6 7.8- 5.1--1017.1 981.5 0.7 0.3 0.4x- 4.3-------
2018-10-02 8.8 12.5 7.1 5.4 81.8 9.2- 1.8--1016.5 980.8 5.1 5.1 0.0x- 0.1-------
82.9 ms

 

Źródłem pochodzenia danych jest Instytut Meteorologii i Gospodarki Wodnej – Państwowy Instytut Badawczy. Dane Instytutu Meteorologii i Gospodarki Wodnej – Państwowego Instytutu Badawczego zostały przetworzone.

Dane źródłowe można odnaleźć na stronie https://dane.imgw.pl